sensor_id;sensor_type;location;lat;lon;timestamp;temperature;humidity
16102;DHT22;56411;52.964;10.540;2024-02-16T05:25:46;9.20;99.90
16102;DHT22;56411;52.964;10.540;2024-02-16T05:28:13;9.20;99.90
16102;DHT22;56411;52.964;10.540;2024-02-16T05:30:40;9.20;99.90
16102;DHT22;56411;52.964;10.540;2024-02-16T05:33:08;9.20;99.90
16102;DHT22;56411;52.964;10.540;2024-02-16T05:35:35;9.20;99.90
16102;DHT22;56411;52.964;10.540;2024-02-16T05:38:06;9.20;99.90
16102;DHT22;56411;52.964;10.540;2024-02-16T05:40:47;9.20;99.90
16102;DHT22;56411;52.964;10.540;2024-02-16T05:43:22;9.20;99.90
16102;DHT22;56411;52.964;10.540;2024-02-16T05:45:49;9.20;99.90
16102;DHT22;56411;52.964;10.540;2024-02-16T05:48:18;9.20;99.90
16102;DHT22;56411;52.964;10.540;2024-02-16T05:50:47;9.20;99.90
16102;DHT22;56411;52.964;10.540;2024-02-16T05:53:14;9.20;99.90
16102;DHT22;56411;52.964;10.540;2024-02-16T05:55:42;9.20;99.90
16102;DHT22;56411;52.964;10.540;2024-02-16T05:58:11;9.20;99.90
16102;DHT22;56411;52.964;10.540;2024-02-16T06:00:39;9.20;99.90
16102;DHT22;56411;52.964;10.540;2024-02-16T06:03:08;9.10;99.90
16102;DHT22;56411;52.964;10.540;2024-02-16T06:05:35;9.10;99.90
16102;DHT22;56411;52.964;10.540;2024-02-16T06:08:03;9.10;99.90
16102;DHT22;56411;52.964;10.540;2024-02-16T06:10:31;9.10;99.90
16102;DHT22;56411;52.964;10.540;2024-02-16T06:12:58;9.10;99.90
16102;DHT22;56411;52.964;10.540;2024-02-16T06:15:27;9.10;99.90
16102;DHT22;56411;52.964;10.540;2024-02-16T06:17:54;9.10;99.90
16102;DHT22;56411;52.964;10.540;2024-02-16T06:20:21;9.10;99.90
16102;DHT22;56411;52.964;10.540;2024-02-16T06:22:48;9.00;99.90
16102;DHT22;56411;52.964;10.540;2024-02-16T06:25:16;9.10;99.90
16102;DHT22;56411;52.964;10.540;2024-02-16T06:27:44;9.20;99.90
16102;DHT22;56411;52.964;10.540;2024-02-16T06:30:12;9.20;99.90
16102;DHT22;56411;52.964;10.540;2024-02-16T06:32:41;9.20;99.90
16102;DHT22;56411;52.964;10.540;2024-02-16T06:35:09;9.20;99.90
16102;DHT22;56411;52.964;10.540;2024-02-16T06:37:36;9.20;99.90
16102;DHT22;56411;52.964;10.540;2024-02-16T06:40:05;9.30;99.90
16102;DHT22;56411;52.964;10.540;2024-02-16T06:42:35;9.30;99.90
16102;DHT22;56411;52.964;10.540;2024-02-16T06:45:03;9.30;99.90
16102;DHT22;56411;52.964;10.540;2024-02-16T06:47:30;9.30;99.90
16102;DHT22;56411;52.964;10.540;2024-02-16T06:49:59;9.40;99.90
16102;DHT22;56411;52.964;10.540;2024-02-16T06:52:26;9.40;99.90
16102;DHT22;56411;52.964;10.540;2024-02-16T06:54:54;9.40;99.90
16102;DHT22;56411;52.964;10.540;2024-02-16T06:57:21;9.40;99.90
16102;DHT22;56411;52.964;10.540;2024-02-16T06:59:48;9.40;99.90
16102;DHT22;56411;52.964;10.540;2024-02-16T07:02:16;9.40;99.90
16102;DHT22;56411;52.964;10.540;2024-02-16T07:04:43;9.40;99.90
16102;DHT22;56411;52.964;10.540;2024-02-16T07:07:13;9.40;99.90
16102;DHT22;56411;52.964;10.540;2024-02-16T07:09:40;9.50;99.90
16102;DHT22;56411;52.964;10.540;2024-02-16T07:12:18;9.40;99.90
16102;DHT22;56411;52.964;10.540;2024-02-16T07:14:47;9.40;99.90
16102;DHT22;56411;52.964;10.540;2024-02-16T07:17:16;9.50;99.90
16102;DHT22;56411;52.964;10.540;2024-02-16T07:19:43;9.50;99.90
16102;DHT22;56411;52.964;10.540;2024-02-16T07:22:10;9.50;99.90
16102;DHT22;56411;52.964;10.540;2024-02-16T07:24:53;9.50;99.90
16102;DHT22;56411;52.964;10.540;2024-02-16T07:27:33;9.60;99.90
16102;DHT22;56411;52.964;10.540;2024-02-16T07:30:12;9.60;99.90
16102;DHT22;56411;52.964;10.540;2024-02-16T07:32:42;9.70;99.90
16102;DHT22;56411;52.964;10.540;2024-02-16T07:35:11;9.70;99.90
16102;DHT22;56411;52.964;10.540;2024-02-16T07:37:49;9.70;99.90
16102;DHT22;56411;52.964;10.540;2024-02-16T07:40:21;9.70;99.90
16102;DHT22;56411;52.964;10.540;2024-02-16T07:42:49;9.70;99.90
16102;DHT22;56411;52.964;10.540;2024-02-16T07:45:18;9.70;99.90
16102;DHT22;56411;52.964;10.540;2024-02-16T07:47:46;9.70;99.90
16102;DHT22;56411;52.964;10.540;2024-02-16T07:50:13;9.80;99.90
16102;DHT22;56411;52.964;10.540;2024-02-16T07:52:40;9.80;99.90
16102;DHT22;56411;52.964;10.540;2024-02-16T07:55:09;9.80;99.90
16102;DHT22;56411;52.964;10.540;2024-02-16T07:57:40;9.80;99.90
16102;DHT22;56411;52.964;10.540;2024-02-16T08:00:19;9.90;99.90
16102;DHT22;56411;52.964;10.540;2024-02-16T08:02:47;9.90;99.90
16102;DHT22;56411;52.964;10.540;2024-02-16T08:05:15;10.00;99.90
16102;DHT22;56411;52.964;10.540;2024-02-16T08:07:45;10.00;99.90
16102;DHT22;56411;52.964;10.540;2024-02-16T08:10:14;10.10;99.90
16102;DHT22;56411;52.964;10.540;2024-02-16T08:12:43;10.10;99.90
16102;DHT22;56411;52.964;10.540;2024-02-16T08:15:10;10.10;99.90
16102;DHT22;56411;52.964;10.540;2024-02-16T08:17:40;10.20;99.90
16102;DHT22;56411;52.964;10.540;2024-02-16T08:20:09;10.20;99.90
16102;DHT22;56411;52.964;10.540;2024-02-16T08:22:37;10.20;99.90
16102;DHT22;56411;52.964;10.540;2024-02-16T08:25:15;10.30;99.90
16102;DHT22;56411;52.964;10.540;2024-02-16T08:27:55;10.40;99.90
16102;DHT22;56411;52.964;10.540;2024-02-16T08:30:23;10.50;99.90
16102;DHT22;56411;52.964;10.540;2024-02-16T08:32:59;10.60;99.90
16102;DHT22;56411;52.964;10.540;2024-02-16T08:35:31;10.70;99.90
16102;DHT22;56411;52.964;10.540;2024-02-16T08:37:58;10.80;99.90
16102;DHT22;56411;52.964;10.540;2024-02-16T08:40:26;10.80;99.90
16102;DHT22;56411;52.964;10.540;2024-02-16T08:43:25;10.90;99.90
16102;DHT22;56411;52.964;10.540;2024-02-16T08:45:58;11.00;99.90
16102;DHT22;56411;52.964;10.540;2024-02-16T08:48:29;11.10;99.90
16102;DHT22;56411;52.964;10.540;2024-02-16T08:51:05;11.10;99.90
16102;DHT22;56411;52.964;10.540;2024-02-16T08:54:16;11.10;99.90
16102;DHT22;56411;52.964;10.540;2024-02-16T09:00:09;11.30;99.90
16102;DHT22;56411;52.964;10.540;2024-02-16T09:02:38;11.50;99.90
16102;DHT22;56411;52.964;10.540;2024-02-16T09:05:10;11.60;99.90
16102;DHT22;56411;52.964;10.540;2024-02-16T09:07:39;11.90;99.90
16102;DHT22;56411;52.964;10.540;2024-02-16T09:10:08;12.10;99.90
16102;DHT22;56411;52.964;10.540;2024-02-16T09:12:36;12.30;99.90
16102;DHT22;56411;52.964;10.540;2024-02-16T09:15:15;12.40;99.90
16102;DHT22;56411;52.964;10.540;2024-02-16T09:17:44;12.60;99.90
16102;DHT22;56411;52.964;10.540;2024-02-16T09:20:13;12.70;99.90
16102;DHT22;56411;52.964;10.540;2024-02-16T09:22:48;12.80;99.90
16102;DHT22;56411;52.964;10.540;2024-02-16T09:25:16;12.80;99.90
16102;DHT22;56411;52.964;10.540;2024-02-16T09:27:43;12.90;99.90
16102;DHT22;56411;52.964;10.540;2024-02-16T09:30:12;13.00;99.90
16102;DHT22;56411;52.964;10.540;2024-02-16T09:32:41;13.00;99.90
16102;DHT22;56411;52.964;10.540;2024-02-16T09:35:11;13.10;99.90
16102;DHT22;56411;52.964;10.540;2024-02-16T09:37:50;13.10;99.90
16102;DHT22;56411;52.964;10.540;2024-02-16T09:40:18;13.10;99.90
16102;DHT22;56411;52.964;10.540;2024-02-16T09:42:48;13.30;99.90
16102;DHT22;56411;52.964;10.540;2024-02-16T09:45:17;13.30;99.90
16102;DHT22;56411;52.964;10.540;2024-02-16T09:47:50;13.50;99.90
16102;DHT22;56411;52.964;10.540;2024-02-16T09:50:25;13.70;99.90
16102;DHT22;56411;52.964;10.540;2024-02-16T09:52:54;13.90;99.90
16102;DHT22;56411;52.964;10.540;2024-02-16T09:55:23;14.00;99.90
16102;DHT22;56411;52.964;10.540;2024-02-16T09:58:01;14.00;99.90
16102;DHT22;56411;52.964;10.540;2024-02-16T10:00:51;14.10;99.90
16102;DHT22;56411;52.964;10.540;2024-02-16T10:03:26;14.10;99.90
16102;DHT22;56411;52.964;10.540;2024-02-16T10:06:19;14.20;99.90
16102;DHT22;56411;52.964;10.540;2024-02-16T10:08:49;14.40;99.90
16102;DHT22;56411;52.964;10.540;2024-02-16T10:11:54;14.50;99.90
16102;DHT22;56411;52.964;10.540;2024-02-16T10:17:57;14.60;99.90
16102;DHT22;56411;52.964;10.540;2024-02-16T10:20:27;14.70;99.90
16102;DHT22;56411;52.964;10.540;2024-02-16T10:23:05;14.70;99.90
16102;DHT22;56411;52.964;10.540;2024-02-16T10:25:32;14.70;99.90
16102;DHT22;56411;52.964;10.540;2024-02-16T10:28:04;14.80;99.90
16102;DHT22;56411;52.964;10.540;2024-02-16T10:30:35;14.60;99.90
16102;DHT22;56411;52.964;10.540;2024-02-16T10:33:05;14.60;99.90
16102;DHT22;56411;52.964;10.540;2024-02-16T10:35:36;14.50;99.90
16102;DHT22;56411;52.964;10.540;2024-02-16T10:38:06;14.50;99.90
16102;DHT22;56411;52.964;10.540;2024-02-16T10:40:38;14.60;99.90
16102;DHT22;56411;52.964;10.540;2024-02-16T10:43:07;14.60;99.90
16102;DHT22;56411;52.964;10.540;2024-02-16T10:45:37;14.70;99.90
16102;DHT22;56411;52.964;10.540;2024-02-16T10:48:15;14.80;99.90
16102;DHT22;56411;52.964;10.540;2024-02-16T10:50:45;14.70;99.90
16102;DHT22;56411;52.964;10.540;2024-02-16T10:53:21;14.70;99.90
16102;DHT22;56411;52.964;10.540;2024-02-16T10:55:50;14.70;99.90
16102;DHT22;56411;52.964;10.540;2024-02-16T10:58:18;14.70;99.90
16102;DHT22;56411;52.964;10.540;2024-02-16T11:00:50;14.80;99.90
16102;DHT22;56411;52.964;10.540;2024-02-16T11:03:22;14.80;99.90
16102;DHT22;56411;52.964;10.540;2024-02-16T11:05:53;14.90;99.90
16102;DHT22;56411;52.964;10.540;2024-02-16T11:08:24;14.90;99.90
16102;DHT22;56411;52.964;10.540;2024-02-16T11:11:08;14.90;99.90
16102;DHT22;56411;52.964;10.540;2024-02-16T11:13:38;15.00;99.90
16102;DHT22;56411;52.964;10.540;2024-02-16T11:16:08;15.00;99.90
16102;DHT22;56411;52.964;10.540;2024-02-16T11:18:41;15.00;99.90
16102;DHT22;56411;52.964;10.540;2024-02-16T11:21:17;15.10;99.90
16102;DHT22;56411;52.964;10.540;2024-02-16T11:24:09;15.00;99.90
16102;DHT22;56411;52.964;10.540;2024-02-16T11:27:21;15.10;99.90
16102;DHT22;56411;52.964;10.540;2024-02-16T11:30:20;15.10;99.90
16102;DHT22;56411;52.964;10.540;2024-02-16T11:32:47;15.10;99.90
16102;DHT22;56411;52.964;10.540;2024-02-16T11:35:14;15.10;99.90
16102;DHT22;56411;52.964;10.540;2024-02-16T11:37:44;15.10;99.90
16102;DHT22;56411;52.964;10.540;2024-02-16T11:40:20;15.00;99.90
16102;DHT22;56411;52.964;10.540;2024-02-16T11:43:20;15.00;99.90
16102;DHT22;56411;52.964;10.540;2024-02-16T11:50:05;15.00;99.90
16102;DHT22;56411;52.964;10.540;2024-02-16T11:53:05;15.10;99.90
16102;DHT22;56411;52.964;10.540;2024-02-16T11:55:34;15.10;99.90
16102;DHT22;56411;52.964;10.540;2024-02-16T11:58:02;15.20;99.90
16102;DHT22;56411;52.964;10.540;2024-02-16T12:03:59;15.10;99.90
16102;DHT22;56411;52.964;10.540;2024-02-16T12:06:34;15.10;99.90
16102;DHT22;56411;52.964;10.540;2024-02-16T12:09:08;15.10;99.90
16102;DHT22;56411;52.964;10.540;2024-02-16T12:11:36;15.00;99.90
16102;DHT22;56411;52.964;10.540;2024-02-16T12:14:15;15.00;99.90
16102;DHT22;56411;52.964;10.540;2024-02-16T12:16:54;15.00;99.90
16102;DHT22;56411;52.964;10.540;2024-02-16T12:19:30;15.00;99.90
16102;DHT22;56411;52.964;10.540;2024-02-16T12:22:03;15.00;99.90
16102;DHT22;56411;52.964;10.540;2024-02-16T12:24:54;15.00;99.90
16102;DHT22;56411;52.964;10.540;2024-02-16T12:27:30;15.10;99.90
16102;DHT22;56411;52.964;10.540;2024-02-16T12:37:38;14.90;99.90
16102;DHT22;56411;52.964;10.540;2024-02-16T12:44:08;14.90;99.90
16102;DHT22;56411;52.964;10.540;2024-02-16T12:46:57;15.00;99.90
16102;DHT22;56411;52.964;10.540;2024-02-16T12:49:59;15.00;99.90
16102;DHT22;56411;52.964;10.540;2024-02-16T12:59:24;15.30;99.90
16102;DHT22;56411;52.964;10.540;2024-02-16T13:02:02;15.50;99.90
16102;DHT22;56411;52.964;10.540;2024-02-16T13:05:00;15.70;99.90
16102;DHT22;56411;52.964;10.540;2024-02-16T13:11:05;15.90;99.90
16102;DHT22;56411;52.964;10.540;2024-02-16T13:16:14;15.70;99.90
16102;DHT22;56411;52.964;10.540;2024-02-16T13:18:41;15.60;99.90
16102;DHT22;56411;52.964;10.540;2024-02-16T13:21:31;15.80;99.90
16102;DHT22;56411;52.964;10.540;2024-02-16T13:24:03;15.70;99.90
16102;DHT22;56411;52.964;10.540;2024-02-16T13:26:50;15.80;99.90
16102;DHT22;56411;52.964;10.540;2024-02-16T13:29:33;16.20;99.90
16102;DHT22;56411;52.964;10.540;2024-02-16T13:32:21;16.40;99.90
16102;DHT22;56411;52.964;10.540;2024-02-16T13:37:39;16.90;99.90
16102;DHT22;56411;52.964;10.540;2024-02-16T13:40:25;16.80;99.90
16102;DHT22;56411;52.964;10.540;2024-02-16T13:46:11;16.00;99.90
16102;DHT22;56411;52.964;10.540;2024-02-16T13:48:41;15.70;99.90
16102;DHT22;56411;52.964;10.540;2024-02-16T13:51:29;15.60;99.90
16102;DHT22;56411;52.964;10.540;2024-02-16T13:57:13;15.30;99.90
16102;DHT22;56411;52.964;10.540;2024-02-16T13:59:43;15.20;99.90
16102;DHT22;56411;52.964;10.540;2024-02-16T14:02:21;15.10;99.90
16102;DHT22;56411;52.964;10.540;2024-02-16T14:05:04;15.10;99.90
16102;DHT22;56411;52.964;10.540;2024-02-16T14:08:22;15.10;99.90
16102;DHT22;56411;52.964;10.540;2024-02-16T14:10:51;15.00;99.90
16102;DHT22;56411;52.964;10.540;2024-02-16T14:13:22;15.00;99.90
16102;DHT22;56411;52.964;10.540;2024-02-16T14:16:08;15.00;99.90
16102;DHT22;56411;52.964;10.540;2024-02-16T14:18:47;15.00;99.90
16102;DHT22;56411;52.964;10.540;2024-02-16T14:21:39;15.10;99.90
16102;DHT22;56411;52.964;10.540;2024-02-16T14:24:07;15.00;99.90
16102;DHT22;56411;52.964;10.540;2024-02-16T14:26:52;15.00;99.90
16102;DHT22;56411;52.964;10.540;2024-02-16T14:29:34;15.00;99.90
16102;DHT22;56411;52.964;10.540;2024-02-16T14:32:08;14.90;99.90
16102;DHT22;56411;52.964;10.540;2024-02-16T14:34:48;14.80;99.90
16102;DHT22;56411;52.964;10.540;2024-02-16T14:37:19;14.80;99.90
16102;DHT22;56411;52.964;10.540;2024-02-16T14:39:47;14.70;99.90
16102;DHT22;56411;52.964;10.540;2024-02-16T14:42:17;14.70;99.90
16102;DHT22;56411;52.964;10.540;2024-02-16T14:44:45;14.70;99.90
16102;DHT22;56411;52.964;10.540;2024-02-16T14:47:30;14.60;99.90
16102;DHT22;56411;52.964;10.540;2024-02-16T14:50:07;14.60;99.90
16102;DHT22;56411;52.964;10.540;2024-02-16T14:56:03;14.60;99.90
16102;DHT22;56411;52.964;10.540;2024-02-16T14:58:51;14.50;99.90
16102;DHT22;56411;52.964;10.540;2024-02-16T15:01:33;14.50;99.90
16102;DHT22;56411;52.964;10.540;2024-02-16T15:04:08;14.50;99.90
16102;DHT22;56411;52.964;10.540;2024-02-16T15:06:38;14.40;99.90
16102;DHT22;56411;52.964;10.540;2024-02-16T15:09:27;14.40;99.90
16102;DHT22;56411;52.964;10.540;2024-02-16T15:11:58;14.30;99.90
16102;DHT22;56411;52.964;10.540;2024-02-16T15:14:27;14.20;99.90
16102;DHT22;56411;52.964;10.540;2024-02-16T15:16:54;14.10;99.90
16102;DHT22;56411;52.964;10.540;2024-02-16T15:19:23;14.00;99.90
16102;DHT22;56411;52.964;10.540;2024-02-16T15:21:53;14.00;99.90
16102;DHT22;56411;52.964;10.540;2024-02-16T15:27:56;14.00;99.90
16102;DHT22;56411;52.964;10.540;2024-02-16T15:30:37;14.00;99.90
16102;DHT22;56411;52.964;10.540;2024-02-16T15:39:57;14.00;99.90
16102;DHT22;56411;52.964;10.540;2024-02-16T15:49:54;13.80;99.90
16102;DHT22;56411;52.964;10.540;2024-02-16T16:03:24;13.60;99.90
16102;DHT22;56411;52.964;10.540;2024-02-16T16:16:48;13.60;99.90
16102;DHT22;56411;52.964;10.540;2024-02-16T16:19:25;13.60;99.90
16102;DHT22;56411;52.964;10.540;2024-02-16T16:21:57;13.60;99.90
16102;DHT22;56411;52.964;10.540;2024-02-16T16:24:26;13.60;99.90
16102;DHT22;56411;52.964;10.540;2024-02-16T16:26:54;13.50;99.90
16102;DHT22;56411;52.964;10.540;2024-02-16T16:29:21;13.50;99.90
16102;DHT22;56411;52.964;10.540;2024-02-16T16:32:18;13.40;99.90
16102;DHT22;56411;52.964;10.540;2024-02-16T16:35:01;13.40;99.90
16102;DHT22;56411;52.964;10.540;2024-02-16T16:37:28;13.30;99.90
16102;DHT22;56411;52.964;10.540;2024-02-16T16:39:55;13.10;99.90
16102;DHT22;56411;52.964;10.540;2024-02-16T16:42:23;12.90;99.90
16102;DHT22;56411;52.964;10.540;2024-02-16T16:44:50;12.80;99.90
16102;DHT22;56411;52.964;10.540;2024-02-16T16:47:19;12.70;99.90
16102;DHT22;56411;52.964;10.540;2024-02-16T16:49:46;12.60;99.90
16102;DHT22;56411;52.964;10.540;2024-02-16T16:52:13;12.60;99.90
16102;DHT22;56411;52.964;10.540;2024-02-16T16:54:41;12.60;99.90
16102;DHT22;56411;52.964;10.540;2024-02-16T16:57:09;12.60;99.90
16102;DHT22;56411;52.964;10.540;2024-02-16T16:59:36;12.60;99.90
16102;DHT22;56411;52.964;10.540;2024-02-16T17:02:06;12.50;99.90
16102;DHT22;56411;52.964;10.540;2024-02-16T17:04:36;12.50;99.90
16102;DHT22;56411;52.964;10.540;2024-02-16T17:07:03;12.60;99.90
16102;DHT22;56411;52.964;10.540;2024-02-16T17:09:31;12.60;99.90
16102;DHT22;56411;52.964;10.540;2024-02-16T17:11:59;12.50;99.90
16102;DHT22;56411;52.964;10.540;2024-02-16T17:14:30;12.50;99.90
16102;DHT22;56411;52.964;10.540;2024-02-16T17:17:08;12.50;99.90
16102;DHT22;56411;52.964;10.540;2024-02-16T17:19:37;12.50;99.90
16102;DHT22;56411;52.964;10.540;2024-02-16T17:22:04;12.50;99.90
16102;DHT22;56411;52.964;10.540;2024-02-16T17:24:32;12.50;99.90
16102;DHT22;56411;52.964;10.540;2024-02-16T17:27:00;12.50;99.90
16102;DHT22;56411;52.964;10.540;2024-02-16T17:29:32;12.50;99.90
16102;DHT22;56411;52.964;10.540;2024-02-16T17:32:00;12.50;99.90
16102;DHT22;56411;52.964;10.540;2024-02-16T17:34:43;12.50;99.90
16102;DHT22;56411;52.964;10.540;2024-02-16T17:37:11;12.50;99.90
16102;DHT22;56411;52.964;10.540;2024-02-16T17:39:39;12.50;99.90
16102;DHT22;56411;52.964;10.540;2024-02-16T17:42:08;12.50;99.90
16102;DHT22;56411;52.964;10.540;2024-02-16T17:44:36;12.50;99.90
16102;DHT22;56411;52.964;10.540;2024-02-16T17:47:04;12.50;99.90
16102;DHT22;56411;52.964;10.540;2024-02-16T17:49:31;12.50;99.90
16102;DHT22;56411;52.964;10.540;2024-02-16T17:52:00;12.50;99.90
16102;DHT22;56411;52.964;10.540;2024-02-16T17:54:28;12.50;99.90
16102;DHT22;56411;52.964;10.540;2024-02-16T17:56:55;12.50;99.90
16102;DHT22;56411;52.964;10.540;2024-02-16T17:59:23;12.50;99.90
16102;DHT22;56411;52.964;10.540;2024-02-16T18:01:50;12.50;99.90
16102;DHT22;56411;52.964;10.540;2024-02-16T18:04:17;12.40;99.90
16102;DHT22;56411;52.964;10.540;2024-02-16T18:06:44;12.40;99.90
16102;DHT22;56411;52.964;10.540;2024-02-16T18:09:13;12.50;99.90
16102;DHT22;56411;52.964;10.540;2024-02-16T18:11:40;12.40;99.90
16102;DHT22;56411;52.964;10.540;2024-02-16T18:14:07;12.40;99.90
16102;DHT22;56411;52.964;10.540;2024-02-16T18:16:35;12.40;99.90
16102;DHT22;56411;52.964;10.540;2024-02-16T18:19:02;12.40;99.90
16102;DHT22;56411;52.964;10.540;2024-02-16T18:21:29;12.40;99.90
16102;DHT22;56411;52.964;10.540;2024-02-16T18:23:56;12.40;99.90
16102;DHT22;56411;52.964;10.540;2024-02-16T18:26:25;12.40;99.90
16102;DHT22;56411;52.964;10.540;2024-02-16T18:28:53;12.40;99.90
16102;DHT22;56411;52.964;10.540;2024-02-16T18:31:20;12.40;99.90
16102;DHT22;56411;52.964;10.540;2024-02-16T18:33:48;12.30;99.90
16102;DHT22;56411;52.964;10.540;2024-02-16T18:36:15;12.40;99.90
16102;DHT22;56411;52.964;10.540;2024-02-16T18:38:42;12.30;99.90
16102;DHT22;56411;52.964;10.540;2024-02-16T18:41:10;12.30;99.90
16102;DHT22;56411;52.964;10.540;2024-02-16T18:43:38;12.30;99.90
16102;DHT22;56411;52.964;10.540;2024-02-16T18:46:06;12.30;99.90
16102;DHT22;56411;52.964;10.540;2024-02-16T18:48:33;12.20;99.90
16102;DHT22;56411;52.964;10.540;2024-02-16T18:51:00;12.20;99.90
16102;DHT22;56411;52.964;10.540;2024-02-16T18:53:27;12.10;99.90
16102;DHT22;56411;52.964;10.540;2024-02-16T18:55:55;12.10;99.90
16102;DHT22;56411;52.964;10.540;2024-02-16T18:58:22;12.10;99.90
16102;DHT22;56411;52.964;10.540;2024-02-16T19:01:15;12.10;99.90
16102;DHT22;56411;52.964;10.540;2024-02-16T19:04:03;12.10;99.90
16102;DHT22;56411;52.964;10.540;2024-02-16T19:06:31;12.10;99.90
16102;DHT22;56411;52.964;10.540;2024-02-16T19:08:59;12.00;99.90
16102;DHT22;56411;52.964;10.540;2024-02-16T19:11:26;12.00;99.90
16102;DHT22;56411;52.964;10.540;2024-02-16T19:13:53;11.90;99.90
16102;DHT22;56411;52.964;10.540;2024-02-16T19:16:22;12.00;99.90
16102;DHT22;56411;52.964;10.540;2024-02-16T19:18:49;11.90;99.90
16102;DHT22;56411;52.964;10.540;2024-02-16T19:21:16;11.90;99.90
16102;DHT22;56411;52.964;10.540;2024-02-16T19:23:44;11.90;99.90
16102;DHT22;56411;52.964;10.540;2024-02-16T19:26:11;11.80;99.90
16102;DHT22;56411;52.964;10.540;2024-02-16T19:28:38;11.70;99.90
16102;DHT22;56411;52.964;10.540;2024-02-16T19:31:06;11.70;99.90
16102;DHT22;56411;52.964;10.540;2024-02-16T19:33:36;11.70;99.90
16102;DHT22;56411;52.964;10.540;2024-02-16T19:36:03;11.70;99.90
16102;DHT22;56411;52.964;10.540;2024-02-16T19:38:31;11.60;99.90
16102;DHT22;56411;52.964;10.540;2024-02-16T19:40:59;11.60;99.90
16102;DHT22;56411;52.964;10.540;2024-02-16T19:43:27;11.60;99.90
16102;DHT22;56411;52.964;10.540;2024-02-16T19:45:54;11.60;99.90
16102;DHT22;56411;52.964;10.540;2024-02-16T19:48:22;11.60;99.90
16102;DHT22;56411;52.964;10.540;2024-02-16T19:50:51;11.50;99.90
16102;DHT22;56411;52.964;10.540;2024-02-16T19:53:18;11.50;99.90
16102;DHT22;56411;52.964;10.540;2024-02-16T19:55:46;11.50;99.90
16102;DHT22;56411;52.964;10.540;2024-02-16T19:58:14;11.50;99.90
16102;DHT22;56411;52.964;10.540;2024-02-16T20:00:42;11.40;99.90
16102;DHT22;56411;52.964;10.540;2024-02-16T20:03:11;11.40;99.90
16102;DHT22;56411;52.964;10.540;2024-02-16T20:05:38;11.40;99.90
16102;DHT22;56411;52.964;10.540;2024-02-16T20:08:08;11.30;99.90
16102;DHT22;56411;52.964;10.540;2024-02-16T20:10:36;11.40;99.90
16102;DHT22;56411;52.964;10.540;2024-02-16T20:13:04;11.30;99.90
16102;DHT22;56411;52.964;10.540;2024-02-16T20:15:32;11.30;99.90
16102;DHT22;56411;52.964;10.540;2024-02-16T20:17:59;11.20;99.90
16102;DHT22;56411;52.964;10.540;2024-02-16T20:20:27;11.20;99.90
16102;DHT22;56411;52.964;10.540;2024-02-16T20:22:55;11.20;99.90
16102;DHT22;56411;52.964;10.540;2024-02-16T20:25:24;11.20;99.90
16102;DHT22;56411;52.964;10.540;2024-02-16T20:27:51;11.20;99.90
16102;DHT22;56411;52.964;10.540;2024-02-16T20:30:19;11.20;99.90
16102;DHT22;56411;52.964;10.540;2024-02-16T20:32:47;11.20;99.90
16102;DHT22;56411;52.964;10.540;2024-02-16T20:35:19;11.20;99.90
16102;DHT22;56411;52.964;10.540;2024-02-16T20:37:46;11.20;99.90
16102;DHT22;56411;52.964;10.540;2024-02-16T20:40:14;11.20;99.90
16102;DHT22;56411;52.964;10.540;2024-02-16T20:42:46;11.20;99.90
16102;DHT22;56411;52.964;10.540;2024-02-16T20:45:13;11.20;99.90
16102;DHT22;56411;52.964;10.540;2024-02-16T20:47:41;11.20;99.90
16102;DHT22;56411;52.964;10.540;2024-02-16T20:50:08;11.20;99.90
16102;DHT22;56411;52.964;10.540;2024-02-16T20:52:36;11.20;99.90
16102;DHT22;56411;52.964;10.540;2024-02-16T20:55:04;11.10;99.90
16102;DHT22;56411;52.964;10.540;2024-02-16T20:57:31;11.10;99.90
16102;DHT22;56411;52.964;10.540;2024-02-16T21:00:00;11.10;99.90
16102;DHT22;56411;52.964;10.540;2024-02-16T21:02:32;11.10;99.90
16102;DHT22;56411;52.964;10.540;2024-02-16T21:05:00;11.10;99.90
16102;DHT22;56411;52.964;10.540;2024-02-16T21:07:28;11.10;99.90
16102;DHT22;56411;52.964;10.540;2024-02-16T21:09:56;11.10;99.90
16102;DHT22;56411;52.964;10.540;2024-02-16T21:12:24;11.20;99.90
16102;DHT22;56411;52.964;10.540;2024-02-16T21:14:53;11.20;99.90
16102;DHT22;56411;52.964;10.540;2024-02-16T21:17:22;11.20;99.90
16102;DHT22;56411;52.964;10.540;2024-02-16T21:19:50;11.20;99.90
16102;DHT22;56411;52.964;10.540;2024-02-16T21:22:17;11.20;99.90
16102;DHT22;56411;52.964;10.540;2024-02-16T21:24:44;11.20;99.90
16102;DHT22;56411;52.964;10.540;2024-02-16T21:27:13;11.20;99.90
16102;DHT22;56411;52.964;10.540;2024-02-16T21:29:43;11.10;99.90
16102;DHT22;56411;52.964;10.540;2024-02-16T21:32:21;11.10;99.90
16102;DHT22;56411;52.964;10.540;2024-02-16T21:34:55;11.10;99.90
16102;DHT22;56411;52.964;10.540;2024-02-16T21:37:23;11.10;99.90
16102;DHT22;56411;52.964;10.540;2024-02-16T21:39:55;11.10;99.90
16102;DHT22;56411;52.964;10.540;2024-02-16T21:42:29;11.10;99.90
16102;DHT22;56411;52.964;10.540;2024-02-16T21:45:02;11.10;99.90
16102;DHT22;56411;52.964;10.540;2024-02-16T21:47:30;11.10;99.90
16102;DHT22;56411;52.964;10.540;2024-02-16T21:49:59;11.10;99.90
16102;DHT22;56411;52.964;10.540;2024-02-16T21:52:27;11.10;99.90
16102;DHT22;56411;52.964;10.540;2024-02-16T21:54:54;11.10;99.90
16102;DHT22;56411;52.964;10.540;2024-02-16T21:57:21;11.10;99.90
16102;DHT22;56411;52.964;10.540;2024-02-16T21:59:49;11.10;99.90
16102;DHT22;56411;52.964;10.540;2024-02-16T22:02:17;11.10;99.90
16102;DHT22;56411;52.964;10.540;2024-02-16T22:04:44;11.10;99.90
16102;DHT22;56411;52.964;10.540;2024-02-16T22:07:14;11.10;99.90
16102;DHT22;56411;52.964;10.540;2024-02-16T22:09:42;11.10;99.90
16102;DHT22;56411;52.964;10.540;2024-02-16T22:12:09;11.10;99.90
16102;DHT22;56411;52.964;10.540;2024-02-16T22:14:36;11.10;99.90
16102;DHT22;56411;52.964;10.540;2024-02-16T22:17:03;11.10;99.90
16102;DHT22;56411;52.964;10.540;2024-02-16T22:19:31;11.10;99.90
16102;DHT22;56411;52.964;10.540;2024-02-16T22:21:59;11.00;99.90
16102;DHT22;56411;52.964;10.540;2024-02-16T22:24:30;11.00;99.90
16102;DHT22;56411;52.964;10.540;2024-02-16T22:26:58;11.00;99.90
16102;DHT22;56411;52.964;10.540;2024-02-16T22:29:29;11.00;99.90
16102;DHT22;56411;52.964;10.540;2024-02-16T22:31:56;10.90;99.90
16102;DHT22;56411;52.964;10.540;2024-02-16T22:34:23;10.90;99.90
16102;DHT22;56411;52.964;10.540;2024-02-16T22:36:50;10.90;99.90
16102;DHT22;56411;52.964;10.540;2024-02-16T22:39:18;10.90;99.90
16102;DHT22;56411;52.964;10.540;2024-02-16T22:41:47;10.90;99.90